Time;durP1;ratioP1;P1;durP2;ratioP2;P2;SDS_P1;SDS_P2;PMS_P1;PMS_P2;Temp;Humidity;BMP_temperature;BMP_pressure;BME280_temperature;BME280_humidity;BME280_pressure;Samples;Min_cycle;Max_cycle;Signal;HPM_P1;HPM_P2
2023/04/22 00:00:53;;;;;;;;;;;;;;;;;;4992549;28;8747;-95
2023/04/22 00:03:20;;;;;;;;;;;;;;;;;;4992294;28;7069;-93
2023/04/22 00:05:46;;;;;;;;;;;;;;;;;;4992548;28;8308;-93
2023/04/22 00:08:12;;;;;;;;;;;;;;;;;;5009087;28;7108;-93
2023/04/22 00:10:38;;;;;;;;;;;;;;;;;;4992656;28;8495;-93
2023/04/22 00:13:04;;;;;;;;;;;;;;;;;;4995857;28;6993;-92
2023/04/22 00:15:30;;;;;;;;;;;;;;;;;;5028316;28;6998;-93
2023/04/22 00:17:57;;;;;;;;;;;;;;;;;;5028184;28;8780;-92
2023/04/22 00:20:22;;;;;;;;;;;;;;;;;;5028357;28;8345;-93
2023/04/22 00:22:48;;;;;;;;;;;;;;;;;;5028404;28;6823;-94
2023/04/22 00:25:14;;;;;;;;;;;;;;;;;;5027937;28;6803;-93
2023/04/22 00:27:40;;;;;;;;;;;;;;;;;;5019723;28;7224;-94
2023/04/22 00:30:06;;;;;;;;;;;;;;;;;;5028030;28;7169;-93
2023/04/22 00:32:32;;;;;;;;;;;;;;;;;;5027625;28;7137;-94
2023/04/22 00:34:57;;;;;;;;;;;;;;;;;;5024601;28;7279;-93
2023/04/22 00:37:23;;;;;;;;;;;;;;;;;;5024410;28;8275;-94
2023/04/22 00:39:49;;;;;;;;;;;;;;;;;;5024516;28;7078;-93
2023/04/22 00:42:16;;;;;;;;;;;;;;;;;;5013566;28;8482;-93
2023/04/22 00:44:41;;;;;;;;;;;;;;;;;;5024477;28;8563;-94
2023/04/22 00:47:10;;;;;;;;;;;;;;;;;;5024604;28;8397;-94
2023/04/22 00:49:36;;;;;;;;;;;;;;;;;;5024597;28;7059;-94
2023/04/22 00:52:02;;;;;;;;;;;;;;;;;;5024691;28;7294;-94
2023/04/22 00:54:28;;;;;;;;;;;;;;;;;;5024060;28;8575;-94
2023/04/22 00:56:54;;;;;;;;;;;;;;;;;;5007530;28;8406;-93
2023/04/22 00:59:22;;;;;;;;;;;;;;;;;;5024076;28;8601;-93
2023/04/22 01:01:49;;;;;;;;;;;;;;;;;;5023829;28;7043;-92
2023/04/22 01:04:14;;;;;;;;;;;;;;;;;;5006710;28;6897;-93
2023/04/22 01:06:42;;;;;;;;;;;;;;;;;;5007363;28;7017;-93
2023/04/22 01:09:08;;;;;;;;;;;;;;;;;;5007231;28;8792;-94
2023/04/22 01:11:36;;;;;;;;;;;;;;;;;;5023639;28;8609;-92
2023/04/22 01:14:03;;;;;;;;;;;;;;;;;;5001479;28;7180;-93
2023/04/22 01:16:32;;;;;;;;;;;;;;;;;;5004464;28;7054;-92
2023/04/22 01:18:57;;;;;;;;;;;;;;;;;;5004304;28;7054;-92
2023/04/22 01:21:25;;;;;;;;;;;;;;;;;;5005511;28;8734;-94
2023/04/22 01:23:50;;;;;;;;;;;;;;;;;;5007503;28;7074;-93
2023/04/22 01:26:16;;;;;;;;;;;;;;;;;;5007396;28;8396;-93
2023/04/22 01:28:42;;;;;;;;;;;;;;;;;;5007521;28;8543;-93
2023/04/22 01:31:08;;;;;;;;;;;;;;;;;;5007418;28;8289;-92
2023/04/22 01:33:34;;;;;;;;;;;;;;;;;;5007167;28;8394;-94
2023/04/22 01:36:00;;;;;;;;;;;;;;;;;;5006594;28;8870;-93
2023/04/22 01:38:26;;;;;;;;;;;;;;;;;;5010216;28;7826;-93
2023/04/22 01:40:52;;;;;;;;;;;;;;;;;;5015889;28;6978;-92
2023/04/22 01:43:18;;;;;;;;;;;;;;;;;;5022041;28;8252;-93
2023/04/22 01:45:44;;;;;;;;;;;;;;;;;;5018546;28;7039;-93
2023/04/22 01:48:10;;;;;;;;;;;;;;;;;;5019020;28;6971;-92
2023/04/22 01:50:36;;;;;;;;;;;;;;;;;;5019141;28;7058;-92
2023/04/22 01:53:02;;;;;;;;;;;;;;;;;;5018879;28;8658;-93
2023/04/22 01:55:29;;;;;;;;;;;;;;;;;;5018950;28;7298;-93
2023/04/22 01:57:55;;;;;;;;;;;;;;;;;;5018794;28;7356;-93
2023/04/22 02:00:21;;;;;;;;;;;;;;;;;;5011358;28;6976;-93
2023/04/22 02:02:47;;;;;;;;;;;;;;;;;;5006897;28;8994;-93
2023/04/22 02:05:12;;;;;;;;;;;;;;;;;;5006480;28;7150;-93
2023/04/22 02:07:38;;;;;;;;;;;;;;;;;;5006712;28;7049;-93
2023/04/22 02:10:04;;;;;;;;;;;;;;;;;;5006903;28;8411;-93
2023/04/22 02:12:31;;;;;;;;;;;;;;;;;;5006813;28;8570;-93
2023/04/22 02:14:56;;;;;;;;;;;;;;;;;;5005411;28;7036;-93
2023/04/22 02:17:22;;;;;;;;;;;;;;;;;;5004780;28;8352;-94
2023/04/22 02:19:48;;;;;;;;;;;;;;;;;;5022331;28;7554;-93
2023/04/22 02:22:13;;;;;;;;;;;;;;;;;;5022153;28;7004;-94
2023/04/22 02:24:39;;;;;;;;;;;;;;;;;;5005730;28;8450;-93
2023/04/22 02:27:05;;;;;;;;;;;;;;;;;;5022162;28;8425;-93
2023/04/22 02:29:31;;;;;;;;;;;;;;;;;;5005678;28;8421;-94
2023/04/22 02:31:57;;;;;;;;;;;;;;;;;;5005372;28;7282;-93
2023/04/22 02:34:23;;;;;;;;;;;;;;;;;;5020462;28;7165;-93
2023/04/22 02:36:49;;;;;;;;;;;;;;;;;;5006783;28;6822;-93
2023/04/22 02:39:15;;;;;;;;;;;;;;;;;;4989748;28;8796;-93
2023/04/22 02:41:40;;;;;;;;;;;;;;;;;;4989767;28;8418;-94
2023/04/22 02:44:06;;;;;;;;;;;;;;;;;;4989531;28;8414;-93
2023/04/22 02:46:32;;;;;;;;;;;;;;;;;;4989823;28;8260;-94
2023/04/22 02:48:57;;;;;;;;;;;;;;;;;;4989819;28;8328;-94
2023/04/22 02:51:23;;;;;;;;;;;;;;;;;;4989627;28;7131;-94
2023/04/22 02:53:49;;;;;;;;;;;;;;;;;;4989705;28;7210;-94
2023/04/22 02:56:14;;;;;;;;;;;;;;;;;;4989857;28;6991;-94
2023/04/22 02:58:40;;;;;;;;;;;;;;;;;;4989436;28;6982;-93
2023/04/22 03:01:06;;;;;;;;;;;;;;;;;;4989419;28;7076;-94
2023/04/22 03:03:31;;;;;;;;;;;;;;;;;;4989501;28;7010;-93
2023/04/22 03:05:57;;;;;;;;;;;;;;;;;;4989447;28;6795;-93
2023/04/22 03:08:23;;;;;;;;;;;;;;;;;;4989300;28;8391;-94
2023/04/22 03:10:48;;;;;;;;;;;;;;;;;;4989333;28;7118;-93
2023/04/22 03:13:14;;;;;;;;;;;;;;;;;;4988960;28;8700;-94
2023/04/22 03:15:40;;;;;;;;;;;;;;;;;;4989232;28;7010;-94
2023/04/22 03:18:06;;;;;;;;;;;;;;;;;;5005389;28;7093;-93
2023/04/22 03:20:32;;;;;;;;;;;;;;;;;;5005452;28;8505;-94
2023/04/22 03:23:11;;;;;;;;;;;;;;;;;;5006578;28;8720;-93
2023/04/22 03:25:37;;;;;;;;;;;;;;;;;;4990972;28;6981;-93
2023/04/22 03:28:03;;;;;;;;;;;;;;;;;;5004958;28;7324;-93
2023/04/22 03:30:29;;;;;;;;;;;;;;;;;;5005112;28;8470;-93
2023/04/22 03:32:55;;;;;;;;;;;;;;;;;;5005389;28;8605;-93
2023/04/22 03:35:20;;;;;;;;;;;;;;;;;;5004821;28;7132;-92
2023/04/22 03:37:47;;;;;;;;;;;;;;;;;;5004909;28;6884;-93
2023/04/22 03:40:13;;;;;;;;;;;;;;;;;;5005098;28;7095;-93
2023/04/22 03:42:39;;;;;;;;;;;;;;;;;;5005415;28;7334;-93
2023/04/22 03:45:05;;;;;;;;;;;;;;;;;;5005251;28;8548;-93
2023/04/22 03:47:31;;;;;;;;;;;;;;;;;;5005942;28;8457;-93
2023/04/22 03:49:56;;;;;;;;;;;;;;;;;;5024588;28;8523;-93
2023/04/22 03:52:22;;;;;;;;;;;;;;;;;;5024590;28;8474;-93
2023/04/22 03:54:47;;;;;;;;;;;;;;;;;;5024665;28;8316;-93
2023/04/22 03:57:13;;;;;;;;;;;;;;;;;;5024480;28;7007;-92
2023/04/22 03:59:39;;;;;;;;;;;;;;;;;;5024776;28;8310;-93
2023/04/22 04:02:06;;;;;;;;;;;;;;;;;;5024521;28;7410;-92
2023/04/22 04:04:33;;;;;;;;;;;;;;;;;;5018478;28;6990;-93
2023/04/22 04:06:59;;;;;;;;;;;;;;;;;;5004892;28;7254;-92
2023/04/22 04:09:25;;;;;;;;;;;;;;;;;;5005083;28;8443;-92
2023/04/22 04:11:50;;;;;;;;;;;;;;;;;;5004853;28;8418;-93
2023/04/22 04:14:16;;;;;;;;;;;;;;;;;;5004714;28;8782;-92
2023/04/22 04:16:42;;;;;;;;;;;;;;;;;;5014427;28;6997;-92
2023/04/22 04:19:08;;;;;;;;;;;;;;;;;;4988425;28;7065;-92
2023/04/22 04:21:34;;;;;;;;;;;;;;;;;;4988569;28;7015;-93
2023/04/22 04:23:59;;;;;;;;;;;;;;;;;;4988426;28;8492;-93
2023/04/22 04:26:28;;;;;;;;;;;;;;;;;;4988493;28;8282;-92
2023/04/22 04:28:54;;;;;;;;;;;;;;;;;;4988481;28;6821;-93
2023/04/22 04:31:20;;;;;;;;;;;;;;;;;;4988516;28;7777;-92
2023/04/22 04:33:46;;;;;;;;;;;;;;;;;;4988586;28;8412;-92
2023/04/22 04:36:12;;;;;;;;;;;;;;;;;;4984938;28;6942;-92
2023/04/22 04:38:38;;;;;;;;;;;;;;;;;;4986124;28;7029;-91
2023/04/22 04:41:04;;;;;;;;;;;;;;;;;;4998681;28;8498;-94
2023/04/22 04:43:30;;;;;;;;;;;;;;;;;;5007237;28;7105;-93
2023/04/22 04:45:56;;;;;;;;;;;;;;;;;;5007418;28;8315;-93
2023/04/22 04:48:25;;;;;;;;;;;;;;;;;;5023247;28;7128;-93
2023/04/22 04:50:53;;;;;;;;;;;;;;;;;;5007672;28;6933;-94
2023/04/22 04:53:21;;;;;;;;;;;;;;;;;;5023743;28;8326;-90
2023/04/22 04:55:47;;;;;;;;;;;;;;;;;;5007098;28;8652;-92
2023/04/22 04:58:13;;;;;;;;;;;;;;;;;;5007622;28;7080;-93
2023/04/22 05:00:39;;;;;;;;;;;;;;;;;;5023282;28;8509;-93
2023/04/22 05:03:04;;;;;;;;;;;;;;;;;;5021470;28;8419;-91
2023/04/22 05:05:30;;;;;;;;;;;;;;;;;;5006830;28;8370;-92
2023/04/22 05:07:56;;;;;;;;;;;;;;;;;;5021699;28;7087;-93
2023/04/22 05:10:21;;;;;;;;;;;;;;;;;;5006962;28;6895;-93
2023/04/22 05:12:47;;;;;;;;;;;;;;;;;;5023156;28;8436;-91
2023/04/22 05:15:14;;;;;;;;;;;;;;;;;;5018319;28;6815;-93
2023/04/22 05:17:39;;;;;;;;;;;;;;;;;;5006597;28;6901;-92
2023/04/22 05:20:05;;;;;;;;;;;;;;;;;;5023110;28;6845;-92
2023/04/22 05:22:31;;;;;;;;;;;;;;;;;;5006885;28;8418;-93
2023/04/22 05:24:56;;;;;;;;;;;;;;;;;;5006427;28;8284;-92
2023/04/22 05:27:22;;;;;;;;;;;;;;;;;;5022108;28;7224;-91
2023/04/22 05:29:48;;;;;;;;;;;;;;;;;;5006627;28;7234;-92
2023/04/22 05:32:14;;;;;;;;;;;;;;;;;;5023083;28;7524;-92
2023/04/22 05:34:39;;;;;;;;;;;;;;;;;;5006369;28;8585;-91
2023/04/22 05:37:05;;;;;;;;;;;;;;;;;;5023049;28;7097;-93
2023/04/22 05:39:31;;;;;;;;;;;;;;;;;;5006686;28;6833;-93
2023/04/22 05:41:57;;;;;;;;;;;;;;;;;;5023167;28;6989;-93
2023/04/22 05:44:23;;;;;;;;;;;;;;;;;;5019878;28;8727;-93
2023/04/22 05:46:48;;;;;;;;;;;;;;;;;;4987199;28;7008;-92
2023/04/22 05:49:14;;;;;;;;;;;;;;;;;;4987134;28;8547;-92
2023/04/22 05:51:41;;;;;;;;;;;;;;;;;;4987419;28;6980;-92
2023/04/22 05:54:06;;;;;;;;;;;;;;;;;;5020190;28;7045;-92
2023/04/22 05:56:32;;;;;;;;;;;;;;;;;;4987333;28;8402;-92
2023/04/22 05:58:57;;;;;;;;;;;;;;;;;;4986934;28;9342;-92
2023/04/22 06:01:23;;;;;;;;;;;;;;;;;;4987171;28;6978;-92
2023/04/22 06:03:49;;;;;;;;;;;;;;;;;;4986579;28;7145;-92
2023/04/22 06:06:15;;;;;;;;;;;;;;;;;;4986539;28;6923;-92
2023/04/22 06:08:41;;;;;;;;;;;;;;;;;;4987732;28;8566;-93
2023/04/22 06:11:06;;;;;;;;;;;;;;;;;;4988969;28;8477;-92
2023/04/22 06:13:32;;;;;;;;;;;;;;;;;;5005213;28;8400;-93
2023/04/22 06:16:00;;;;;;;;;;;;;;;;;;5011231;28;7150;-94
2023/04/22 06:18:26;;;;;;;;;;;;;;;;;;5020640;28;7138;-93
2023/04/22 06:20:55;;;;;;;;;;;;;;;;;;5004939;28;8394;-94
2023/04/22 06:23:20;;;;;;;;;;;;;;;;;;5004459;28;7341;-94
2023/04/22 06:25:46;;;;;;;;;;;;;;;;;;5004937;28;8301;-94
2023/04/22 06:28:12;;;;;;;;;;;;;;;;;;5004744;28;9084;-95
2023/04/22 06:30:47;;;;;;;;;;;;;;;;;;5005147;28;7065;-95
2023/04/22 06:33:12;;;;;;;;;;;;;;;;;;5004890;28;6833;-94
2023/04/22 06:35:41;;;;;;;;;;;;;;;;;;5004678;28;7030;-94
2023/04/22 06:38:07;;;;;;;;;;;;;;;;;;5004246;28;7029;-94
2023/04/22 06:40:32;;;;;;;;;;;;;;;;;;5004077;28;8266;-94
2023/04/22 06:42:58;;;;;;;;;;;;;;;;;;5002659;28;6970;-95
2023/04/22 06:45:24;;;;;;;;;;;;;;;;;;5002493;28;7076;-94
2023/04/22 06:47:52;;;;;;;;;;;;;;;;;;5002353;28;7021;-93
2023/04/22 06:50:17;;;;;;;;;;;;;;;;;;5002749;28;7021;-94
2023/04/22 06:52:43;;;;;;;;;;;;;;;;;;5002115;28;6804;-93
2023/04/22 06:55:09;;;;;;;;;;;;;;;;;;5002571;28;8456;-93
2023/04/22 06:57:34;;;;;;;;;;;;;;;;;;5002301;28;8289;-93
2023/04/22 07:00:00;;;;;;;;;;;;;;;;;;5002369;28;7374;-93
2023/04/22 07:02:26;;;;;;;;;;;;;;;;;;5001744;28;6807;-94
2023/04/22 07:04:51;;;;;;;;;;;;;;;;;;5002405;28;7377;-94
2023/04/22 07:07:17;;;;;;;;;;;;;;;;;;5002200;28;8678;-93
2023/04/22 07:09:43;;;;;;;;;;;;;;;;;;5001783;28;7218;-93
2023/04/22 07:12:12;;;;;;;;;;;;;;;;;;5006586;28;8837;-92
2023/04/22 07:14:41;;;;;;;;;;;;;;;;;;5000256;28;6881;-94
2023/04/22 07:17:07;;;;;;;;;;;;;;;;;;4993318;28;7016;-93
2023/04/22 07:19:33;;;;;;;;;;;;;;;;;;5018623;28;8308;-94
2023/04/22 07:21:58;;;;;;;;;;;;;;;;;;4991660;28;8558;-94
2023/04/22 07:24:24;;;;;;;;;;;;;;;;;;4999105;28;8393;-93
2023/04/22 07:26:50;;;;;;;;;;;;;;;;;;5001347;28;7063;-93
2023/04/22 07:29:16;;;;;;;;;;;;;;;;;;5002274;28;8401;-94
2023/04/22 07:31:41;;;;;;;;;;;;;;;;;;5001732;28;8406;-93
2023/04/22 07:34:09;;;;;;;;;;;;;;;;;;5002003;28;8538;-92
2023/04/22 07:36:35;;;;;;;;;;;;;;;;;;5001164;28;6836;-92
2023/04/22 07:39:01;;;;;;;;;;;;;;;;;;5004712;28;8315;-93
2023/04/22 07:41:27;;;;;;;;;;;;;;;;;;5021362;28;8415;-94
2023/04/22 07:43:52;;;;;;;;;;;;;;;;;;5021013;28;8411;-93
2023/04/22 07:46:18;;;;;;;;;;;;;;;;;;5021362;28;7055;-94
2023/04/22 07:48:44;;;;;;;;;;;;;;;;;;5020891;28;6860;-92
2023/04/22 07:51:10;;;;;;;;;;;;;;;;;;5020993;28;8485;-92
2023/04/22 07:53:36;;;;;;;;;;;;;;;;;;5007218;28;8534;-93
2023/04/22 07:56:02;;;;;;;;;;;;;;;;;;5020642;28;8691;-94
2023/04/22 07:58:28;;;;;;;;;;;;;;;;;;5020921;28;6866;-92
2023/04/22 08:00:53;;;;;;;;;;;;;;;;;;5020264;28;8460;-94
2023/04/22 08:03:19;;;;;;;;;;;;;;;;;;5009032;28;7376;-93
2023/04/22 08:05:45;;;;;;;;;;;;;;;;;;5002611;28;7153;-95
2023/04/22 08:08:10;;;;;;;;;;;;;;;;;;5020356;28;7142;-93
2023/04/22 08:10:36;;;;;;;;;;;;;;;;;;5017444;28;8281;-91
2023/04/22 08:13:02;;;;;;;;;;;;;;;;;;4992352;28;8678;-93
2023/04/22 08:15:27;;;;;;;;;;;;;;;;;;5024682;28;7261;-92
2023/04/22 08:17:53;;;;;;;;;;;;;;;;;;5024171;28;6832;-93
2023/04/22 08:20:19;;;;;;;;;;;;;;;;;;5024394;28;7012;-93
2023/04/22 08:22:46;;;;;;;;;;;;;;;;;;5024410;28;7022;-94
2023/04/22 08:25:12;;;;;;;;;;;;;;;;;;5021256;28;7604;-94
2023/04/22 08:27:37;;;;;;;;;;;;;;;;;;5004704;28;8435;-93
2023/04/22 08:30:05;;;;;;;;;;;;;;;;;;5007571;28;7050;-93
2023/04/22 08:32:30;;;;;;;;;;;;;;;;;;5007433;28;8360;-95
2023/04/22 08:34:56;;;;;;;;;;;;;;;;;;5024298;28;8508;-92
2023/04/22 08:37:22;;;;;;;;;;;;;;;;;;5024109;28;8661;-96
2023/04/22 08:39:47;;;;;;;;;;;;;;;;;;5024084;28;8303;-93
2023/04/22 08:42:14;;;;;;;;;;;;;;;;;;5023980;28;8394;-93
2023/04/22 08:44:40;;;;;;;;;;;;;;;;;;5023601;28;6816;-95
2023/04/22 08:47:06;;;;;;;;;;;;;;;;;;5024334;28;8394;-93
2023/04/22 08:49:34;;;;;;;;;;;;;;;;;;5023884;28;8298;-94
2023/04/22 08:52:00;;;;;;;;;;;;;;;;;;5024116;28;8466;-92
2023/04/22 08:54:25;;;;;;;;;;;;;;;;;;5022893;28;8576;-92
2023/04/22 08:56:52;;;;;;;;;;;;;;;;;;5020073;28;7245;-94
2023/04/22 08:59:19;;;;;;;;;;;;;;;;;;5007302;28;8343;-93
2023/04/22 09:01:48;;;;;;;;;;;;;;;;;;5006388;28;8448;-92
2023/04/22 09:04:17;;;;;;;;;;;;;;;;;;5023051;28;8565;-92
2023/04/22 09:06:43;;;;;;;;;;;;;;;;;;5023746;28;8749;-93
2023/04/22 09:09:08;;;;;;;;;;;;;;;;;;5023172;28;6994;-94
2023/04/22 09:11:35;;;;;;;;;;;;;;;;;;5023118;28;6862;-94
2023/04/22 09:14:02;;;;;;;;;;;;;;;;;;5035822;28;6982;-92
2023/04/22 09:16:31;;;;;;;;;;;;;;;;;;5035714;28;8774;-92
2023/04/22 09:18:57;;;;;;;;;;;;;;;;;;5035314;28;8387;-93
2023/04/22 09:21:27;;;;;;;;;;;;;;;;;;5028508;28;6888;-93
2023/04/22 09:24:12;;;;;;;;;;;;;;;;;;5018630;28;8331;-91
2023/04/22 09:27:10;;;;;;;;;;;;;;;;;;5035402;28;7045;-95
2023/04/22 09:30:05;;;;;;;;;;;;;;;;;;5034009;28;8475;-93
2023/04/22 09:33:03;;;;;;;;;;;;;;;;;;5014560;28;8779;-93
2023/04/22 09:35:59;;;;;;;;;;;;;;;;;;5026818;28;8580;-94
2023/04/22 09:38:54;;;;;;;;;;;;;;;;;;5005033;28;8166;-94
2023/04/22 09:41:52;;;;;;;;;;;;;;;;;;5013624;28;8524;-94
2023/04/22 09:44:46;;;;;;;;;;;;;;;;;;5016600;28;8545;-93
2023/04/22 09:47:22;;;;;;;;;;;;;;;;;;5024292;28;8319;-93
2023/04/22 09:49:49;;;;;;;;;;;;;;;;;;5023041;28;8714;-92
2023/04/22 09:52:23;;;;;;;;;;;;;;;;;;5023507;28;6817;-92
2023/04/22 09:54:53;;;;;;;;;;;;;;;;;;5008826;28;8448;-92
2023/04/22 09:57:20;;;;;;;;;;;;;;;;;;5022186;28;8666;-94
2023/04/22 09:59:49;;;;;;;;;;;;;;;;;;5023115;28;7127;-95
2023/04/22 10:02:14;;;;;;;;;;;;;;;;;;5023368;28;8499;-93
2023/04/22 10:04:41;;;;;;;;;;;;;;;;;;5014098;28;8484;-93
2023/04/22 10:07:07;;;;;;;;;;;;;;;;;;4986742;28;7048;-92
2023/04/22 10:09:33;;;;;;;;;;;;;;;;;;4987384;28;8389;-93
2023/04/22 10:12:02;;;;;;;;;;;;;;;;;;4985884;28;8684;-93
2023/04/22 10:14:27;;;;;;;;;;;;;;;;;;5000442;28;8575;-94
2023/04/22 10:16:57;;;;;;;;;;;;;;;;;;5022049;28;8431;-92
2023/04/22 10:19:24;;;;;;;;;;;;;;;;;;5020719;28;6893;-92
2023/04/22 10:22:02;;;;;;;;;;;;;;;;;;5021311;28;7191;-92
2023/04/22 10:24:34;;;;;;;;;;;;;;;;;;5021881;28;7039;-93
2023/04/22 10:27:05;;;;;;;;;;;;;;;;;;5022211;28;8485;-91
2023/04/22 10:29:35;;;;;;;;;;;;;;;;;;5021288;28;8301;-93
2023/04/22 10:32:06;;;;;;;;;;;;;;;;;;5020895;28;6895;-93
2023/04/22 10:34:32;;;;;;;;;;;;;;;;;;5016781;28;8383;-93
2023/04/22 10:37:05;;;;;;;;;;;;;;;;;;4980950;28;7049;-93
2023/04/22 10:39:31;;;;;;;;;;;;;;;;;;4980580;28;7525;-93
2023/04/22 10:42:06;;;;;;;;;;;;;;;;;;4980732;28;8389;-91
2023/04/22 10:44:44;;;;;;;;;;;;;;;;;;4978242;28;6849;-94
2023/04/22 10:47:09;;;;;;;;;;;;;;;;;;5001170;28;8329;-93
2023/04/22 10:49:35;;;;;;;;;;;;;;;;;;4984919;28;7200;-92
2023/04/22 10:52:02;;;;;;;;;;;;;;;;;;4985602;28;8394;-91
2023/04/22 10:54:30;;;;;;;;;;;;;;;;;;4994775;28;8891;-91
2023/04/22 10:57:00;;;;;;;;;;;;;;;;;;5001663;28;8716;-93
2023/04/22 10:59:26;;;;;;;;;;;;;;;;;;4985410;28;7131;-93
2023/04/22 11:01:52;;;;;;;;;;;;;;;;;;4966606;28;8473;-93
2023/04/22 11:04:19;;;;;;;;;;;;;;;;;;4992855;28;6810;-93
2023/04/22 11:06:45;;;;;;;;;;;;;;;;;;4985659;28;7058;-92
2023/04/22 11:09:15;;;;;;;;;;;;;;;;;;4985426;28;6971;-92
2023/04/22 11:11:41;;;;;;;;;;;;;;;;;;4985586;28;8693;-93
2023/04/22 11:14:08;;;;;;;;;;;;;;;;;;4990813;28;8379;-92
2023/04/22 11:16:34;;;;;;;;;;;;;;;;;;4985475;28;8469;-92
2023/04/22 11:19:00;;;;;;;;;;;;;;;;;;4985587;28;7021;-93
2023/04/22 11:21:26;;;;;;;;;;;;;;;;;;4985545;28;8281;-92
2023/04/22 11:23:52;;;;;;;;;;;;;;;;;;4982135;28;7065;-92
2023/04/22 11:26:18;;;;;;;;;;;;;;;;;;4982251;28;8874;-94
2023/04/22 11:28:47;;;;;;;;;;;;;;;;;;4982201;28;6996;-93
2023/04/22 11:31:13;;;;;;;;;;;;;;;;;;4981912;28;7131;-93
2023/04/22 11:33:40;;;;;;;;;;;;;;;;;;4985350;28;8372;-94
2023/04/22 11:36:10;;;;;;;;;;;;;;;;;;4995285;28;8443;-94
2023/04/22 11:38:36;;;;;;;;;;;;;;;;;;5020439;28;8782;-94
2023/04/22 11:41:03;;;;;;;;;;;;;;;;;;5020684;28;8520;-94
2023/04/22 11:43:29;;;;;;;;;;;;;;;;;;5020738;28;6834;-94
2023/04/22 11:45:56;;;;;;;;;;;;;;;;;;5020976;28;8434;-94
2023/04/22 11:48:21;;;;;;;;;;;;;;;;;;5020912;28;6993;-94
2023/04/22 11:50:47;;;;;;;;;;;;;;;;;;5020887;28;8691;-95
2023/04/22 11:53:22;;;;;;;;;;;;;;;;;;5021020;28;8285;-94
2023/04/22 11:55:50;;;;;;;;;;;;;;;;;;5020983;28;7069;-94
2023/04/22 11:58:17;;;;;;;;;;;;;;;;;;5021059;28;7054;-94
2023/04/22 12:00:44;;;;;;;;;;;;;;;;;;5021355;28;7026;-93
2023/04/22 12:03:15;;;;;;;;;;;;;;;;;;5021462;28;7143;-92
2023/04/22 12:05:44;;;;;;;;;;;;;;;;;;5021388;28;8393;-95
2023/04/22 12:08:15;;;;;;;;;;;;;;;;;;5021192;28;8310;-93
2023/04/22 12:10:42;;;;;;;;;;;;;;;;;;5021107;28;7073;-94
2023/04/22 12:13:09;;;;;;;;;;;;;;;;;;5017800;28;8395;-93
2023/04/22 12:15:42;;;;;;;;;;;;;;;;;;5000640;28;8423;-93
2023/04/22 12:18:08;;;;;;;;;;;;;;;;;;5001845;28;8476;-94
2023/04/22 12:20:38;;;;;;;;;;;;;;;;;;5000957;28;6831;-93
2023/04/22 12:23:05;;;;;;;;;;;;;;;;;;5001691;28;7115;-93
2023/04/22 12:25:32;;;;;;;;;;;;;;;;;;5001435;28;8702;-93
2023/04/22 12:27:58;;;;;;;;;;;;;;;;;;5001579;28;8650;-94
2023/04/22 12:30:24;;;;;;;;;;;;;;;;;;5001651;28;7042;-94
2023/04/22 12:32:51;;;;;;;;;;;;;;;;;;5001233;28;7133;-94
2023/04/22 12:35:17;;;;;;;;;;;;;;;;;;5003772;28;8278;-94
2023/04/22 12:37:43;;;;;;;;;;;;;;;;;;5003775;28;8654;-95
2023/04/22 12:40:09;;;;;;;;;;;;;;;;;;5003020;28;6838;-93
2023/04/22 12:42:34;;;;;;;;;;;;;;;;;;5003660;28;7135;-93
2023/04/22 12:45:01;;;;;;;;;;;;;;;;;;5004427;28;8285;-94
2023/04/22 12:47:26;;;;;;;;;;;;;;;;;;5003805;28;8415;-94
2023/04/22 12:49:52;;;;;;;;;;;;;;;;;;5004835;28;6995;-93
2023/04/22 12:52:18;;;;;;;;;;;;;;;;;;5001936;28;8418;-93
2023/04/22 12:54:43;;;;;;;;;;;;;;;;;;5020758;28;7231;-94
2023/04/22 12:57:09;;;;;;;;;;;;;;;;;;5020337;28;7154;-92
2023/04/22 12:59:35;;;;;;;;;;;;;;;;;;5021401;28;7126;-93
2023/04/22 13:02:01;;;;;;;;;;;;;;;;;;5023488;28;8690;-91
2023/04/22 13:04:26;;;;;;;;;;;;;;;;;;5023911;28;7168;-92
2023/04/22 13:06:55;;;;;;;;;;;;;;;;;;5023953;28;8428;-93
2023/04/22 13:09:23;;;;;;;;;;;;;;;;;;5023677;28;7323;-91
2023/04/22 13:11:48;;;;;;;;;;;;;;;;;;5023429;28;8365;-94
2023/04/22 13:14:14;;;;;;;;;;;;;;;;;;5023691;28;8419;-93
2023/04/22 13:16:40;;;;;;;;;;;;;;;;;;5023934;28;7392;-94
2023/04/22 13:19:06;;;;;;;;;;;;;;;;;;5023781;28;7008;-93
2023/04/22 13:21:32;;;;;;;;;;;;;;;;;;5022509;28;6808;-93
2023/04/22 13:23:58;;;;;;;;;;;;;;;;;;5024047;28;8320;-93
2023/04/22 13:26:24;;;;;;;;;;;;;;;;;;5023691;28;7037;-94
2023/04/22 13:28:50;;;;;;;;;;;;;;;;;;5023668;28;7075;-94
2023/04/22 13:31:15;;;;;;;;;;;;;;;;;;5023400;28;7150;-94
2023/04/22 13:33:43;;;;;;;;;;;;;;;;;;5023308;28;6996;-93
2023/04/22 13:36:08;;;;;;;;;;;;;;;;;;5020029;28;8397;-94
2023/04/22 13:38:34;;;;;;;;;;;;;;;;;;4987721;28;8551;-94
2023/04/22 13:41:00;;;;;;;;;;;;;;;;;;4987892;28;8687;-94
2023/04/22 13:43:26;;;;;;;;;;;;;;;;;;5023835;28;9367;-95
2023/04/22 13:45:52;;;;;;;;;;;;;;;;;;5023530;28;7346;-93
2023/04/22 13:48:18;;;;;;;;;;;;;;;;;;5023384;28;8321;-93
2023/04/22 13:50:43;;;;;;;;;;;;;;;;;;5023123;28;8405;-93
2023/04/22 13:53:10;;;;;;;;;;;;;;;;;;5006883;28;8384;-94
2023/04/22 13:55:36;;;;;;;;;;;;;;;;;;5023579;28;6984;-94
2023/04/22 13:58:04;;;;;;;;;;;;;;;;;;5023019;28;6837;-95
2023/04/22 14:00:30;;;;;;;;;;;;;;;;;;5023581;28;8722;-94
2023/04/22 14:02:56;;;;;;;;;;;;;;;;;;5022804;28;8380;-93
2023/04/22 14:05:21;;;;;;;;;;;;;;;;;;5023032;28;7029;-93
2023/04/22 14:07:48;;;;;;;;;;;;;;;;;;5022876;28;7075;-94
2023/04/22 14:10:14;;;;;;;;;;;;;;;;;;5018070;28;7236;-94
2023/04/22 14:12:41;;;;;;;;;;;;;;;;;;4999388;28;6833;-93
2023/04/22 14:15:09;;;;;;;;;;;;;;;;;;5022614;28;8781;-93
2023/04/22 14:17:35;;;;;;;;;;;;;;;;;;5022708;28;8533;-94
2023/04/22 14:20:01;;;;;;;;;;;;;;;;;;5022352;28;8453;-94
2023/04/22 14:22:27;;;;;;;;;;;;;;;;;;5020657;28;8550;-93
2023/04/22 14:24:53;;;;;;;;;;;;;;;;;;4992477;28;7062;-94
2023/04/22 14:27:19;;;;;;;;;;;;;;;;;;5020516;28;8454;-95
2023/04/22 14:29:45;;;;;;;;;;;;;;;;;;5014745;28;8420;-93
2023/04/22 14:32:10;;;;;;;;;;;;;;;;;;5001453;28;7507;-94
2023/04/22 14:34:37;;;;;;;;;;;;;;;;;;5021513;28;8035;-92
2023/04/22 14:37:03;;;;;;;;;;;;;;;;;;5020712;28;7172;-92
2023/04/22 14:39:29;;;;;;;;;;;;;;;;;;5005830;28;8519;-93
2023/04/22 14:41:56;;;;;;;;;;;;;;;;;;5021839;28;8342;-93
2023/04/22 14:44:22;;;;;;;;;;;;;;;;;;5005965;28;8407;-92
2023/04/22 14:46:48;;;;;;;;;;;;;;;;;;5006005;28;6888;-93
2023/04/22 14:49:13;;;;;;;;;;;;;;;;;;5005683;28;7018;-92
2023/04/22 14:51:39;;;;;;;;;;;;;;;;;;5002120;28;8862;-94
2023/04/22 14:54:05;;;;;;;;;;;;;;;;;;5002712;28;8679;-93
2023/04/22 14:56:30;;;;;;;;;;;;;;;;;;5002558;28;7104;-93
2023/04/22 14:58:56;;;;;;;;;;;;;;;;;;5005775;28;6845;-93
2023/04/22 15:01:22;;;;;;;;;;;;;;;;;;5005295;28;7478;-93
2023/04/22 15:03:48;;;;;;;;;;;;;;;;;;5021856;28;8744;-93
2023/04/22 15:06:14;;;;;;;;;;;;;;;;;;5021949;28;7125;-93
2023/04/22 15:08:41;;;;;;;;;;;;;;;;;;5021797;28;8321;-94
2023/04/22 15:11:06;;;;;;;;;;;;;;;;;;5021907;28;8488;-95
2023/04/22 15:13:32;;;;;;;;;;;;;;;;;;5021429;28;8679;-94
2023/04/22 15:15:57;;;;;;;;;;;;;;;;;;5021970;28;8264;-94
2023/04/22 15:18:23;;;;;;;;;;;;;;;;;;5022092;28;7038;-95
2023/04/22 15:20:49;;;;;;;;;;;;;;;;;;5021836;28;7035;-94
2023/04/22 15:23:15;;;;;;;;;;;;;;;;;;5020910;28;8405;-93
2023/04/22 15:25:41;;;;;;;;;;;;;;;;;;5021376;28;8412;-95
2023/04/22 15:28:07;;;;;;;;;;;;;;;;;;5021538;28;8626;-94
2023/04/22 15:30:33;;;;;;;;;;;;;;;;;;5021336;28;8464;-94
2023/04/22 15:32:59;;;;;;;;;;;;;;;;;;5021084;28;8291;-94
2023/04/22 15:35:24;;;;;;;;;;;;;;;;;;5021054;28;7045;-94
2023/04/22 15:37:51;;;;;;;;;;;;;;;;;;5021186;28;7331;-94
2023/04/22 15:40:17;;;;;;;;;;;;;;;;;;5021177;28;8353;-93
2023/04/22 15:42:43;;;;;;;;;;;;;;;;;;5021218;28;8399;-95
2023/04/22 15:45:08;;;;;;;;;;;;;;;;;;5018391;28;7180;-95
2023/04/22 15:47:35;;;;;;;;;;;;;;;;;;5001835;28;7152;-96
2023/04/22 15:50:05;;;;;;;;;;;;;;;;;;5001776;28;8735;-94
2023/04/22 15:52:31;;;;;;;;;;;;;;;;;;5006608;28;7072;-94
2023/04/22 15:54:57;;;;;;;;;;;;;;;;;;5020370;28;7257;-94
2023/04/22 15:57:23;;;;;;;;;;;;;;;;;;5001528;28;8295;-94
2023/04/22 15:59:48;;;;;;;;;;;;;;;;;;5000309;28;8399;-94
2023/04/22 16:02:14;;;;;;;;;;;;;;;;;;5018482;28;7047;-94
2023/04/22 16:04:40;;;;;;;;;;;;;;;;;;5021321;28;7033;-95
2023/04/22 16:07:05;;;;;;;;;;;;;;;;;;5021149;28;7257;-95
2023/04/22 16:09:31;;;;;;;;;;;;;;;;;;5021579;28;7033;-94
2023/04/22 16:11:58;;;;;;;;;;;;;;;;;;5021445;28;8274;-94
2023/04/22 16:14:24;;;;;;;;;;;;;;;;;;5021094;28;8750;-92
2023/04/22 16:16:51;;;;;;;;;;;;;;;;;;5021071;28;7143;-94
2023/04/22 16:19:16;;;;;;;;;;;;;;;;;;5021175;28;8745;-93
2023/04/22 16:21:42;;;;;;;;;;;;;;;;;;5021155;28;8393;-93
2023/04/22 16:24:08;;;;;;;;;;;;;;;;;;5020947;28;6838;-93
2023/04/22 16:26:34;;;;;;;;;;;;;;;;;;5020994;28;7033;-93
2023/04/22 16:29:00;;;;;;;;;;;;;;;;;;5021335;28;8443;-93
2023/04/22 16:31:26;;;;;;;;;;;;;;;;;;5004667;28;7268;-94
2023/04/22 16:33:52;;;;;;;;;;;;;;;;;;5021055;28;8331;-93
2023/04/22 16:36:17;;;;;;;;;;;;;;;;;;5020830;28;7212;-95
2023/04/22 16:38:43;;;;;;;;;;;;;;;;;;4988743;28;6897;-94
2023/04/22 16:41:10;;;;;;;;;;;;;;;;;;4988851;28;7232;-95
2023/04/22 16:43:36;;;;;;;;;;;;;;;;;;4988763;28;8330;-95
2023/04/22 16:46:02;;;;;;;;;;;;;;;;;;4989091;28;7033;-94
2023/04/22 16:48:28;;;;;;;;;;;;;;;;;;4988515;28;7153;-94
2023/04/22 16:50:54;;;;;;;;;;;;;;;;;;4988737;28;8396;-93
2023/04/22 16:53:19;;;;;;;;;;;;;;;;;;4988360;28;7012;-93
2023/04/22 16:55:45;;;;;;;;;;;;;;;;;;4988612;28;6825;-94
2023/04/22 16:58:11;;;;;;;;;;;;;;;;;;4988443;28;8293;-94
2023/04/22 17:00:36;;;;;;;;;;;;;;;;;;4988217;28;6985;-94